Latest Weather Observations for Mornington Island Airport

IDQ60801

Issued at 8:02 am EST Wednesday 8 July 2015 (issued every 30 minutes, with the page automatically refreshed every 10 minutes)

About weather observations | Map of weather stations | Latest weather observations for QLD | Other Formats
Station Details ID: 029182 Name: MORNINGTON ISLAND AIRPORT Lat: -16.66 Lon: 139.17 Height: 9.0 m
Data from the previous 72 hours. | See also: Recent months at Mornington Island Airport
Date/Time
EST
Temp
°C
App
Temp
°C
Dew
Point
Rel
Hum
%
Delta-T
°C
Wind Press
QNH
hPa
Press
MSL
hPa
Rain
since 9 am
mm
Dir
 
Spd
km/h
Gust
km/h
Spd
kts
Gust
kts
08/08:00am 20.3 17.5 8.6 47 6.1 SSE 13 20 7 11 1016.4 1016.3 0.0
08/07:30am 19.6 17.1 9.8 53 5.2 SSE 13 20 7 11 1016.2 1016.1 0.0
08/07:00am 18.4 15.7 7.5 49 5.5 SE 11 17 6 9 1016.0 1015.9 0.0
08/06:30am 18.9 16.0 6.7 45 6.1 SSE 11 15 6 8 1015.4 1015.3 0.0
08/06:00am 18.3 15.3 4.1 39 6.7 SSE 9 15 5 8 1015.3 1015.2 0.0
08/05:30am 18.3 15.2 3.8 38 6.8 SSE 9 15 5 8 1015.0 1014.9 0.0
08/05:00am 18.8 14.9 1.3 31 7.8 SSE 11 17 6 9 1014.8 1014.7 0.0
08/04:30am 19.2 15.2 3.0 34 7.5 SSE 13 24 7 13 1014.4 1014.3 0.0
08/04:00am 18.2 14.3 -1.6 26 8.3 SE 9 13 5 7 1014.1 1014.0 0.0
08/03:30am 17.9 14.0 -1.3 27 8.1 SE 9 13 5 7 1014.3 1014.2 0.0
08/03:00am 18.0 14.1 -1.8 26 8.3 SSE 9 13 5 7 1014.2 1014.1 0.0
08/02:30am 18.2 14.3 -4.5 21 9.0 SSE 7 11 4 6 1014.3 1014.2 0.0
08/02:00am 18.7 14.2 -6.8 17 9.7 SSE 9 15 5 8 1014.4 1014.3 0.0
08/01:30am 15.3 14.2 10.7 74 2.4 SSE 7 9 4 5 1014.5 1014.4 0.0
08/01:00am 15.2 13.6 8.9 66 3.2 SSE 7 9 4 5 1014.7 1014.6 0.0
08/12:30am 15.4 13.7 8.2 62 3.6 SSE 7 9 4 5 1014.9 1014.8 0.0
08/12:00am 15.5 13.6 7.5 59 4.0 SE 7 9 4 5 1015.1 1015.0 0.0
 
Date/Time
EST
Temp
°C
App
Temp
°C
Dew
Point
Rel
Hum
%
Delta-T
°C
Wind Press
QNH
hPa
Press
MSL
hPa
Rain
since 9 am
mm
Dir
 
Spd
km/h
Gust
km/h
Spd
kts
Gust
kts
07/11:30pm 15.9 14.0 7.4 57 4.2 SE 7 9 4 5 1015.1 1015.0 0.0
07/11:00pm 16.3 14.3 7.0 54 4.6 SE 7 9 4 5 1015.2 1015.1 0.0
07/10:30pm 16.6 14.4 6.4 51 5.0 ESE 7 9 4 5 1015.2 1015.1 0.0
07/10:00pm 17.2 15.1 6.7 50 5.2 ESE 7 9 4 5 1015.1 1015.0 0.0
07/09:30pm 18.0 15.9 6.5 47 5.7 ESE 7 9 4 5 1015.1 1015.0 0.0
07/09:00pm 18.2 16.0 6.1 45 5.9 E 7 9 4 5 1015.0 1014.9 0.0
07/08:30pm 18.8 16.2 6.3 44 6.2 E 9 11 5 6 1014.9 1014.8 0.0
07/08:00pm 19.4 16.7 5.5 40 6.8 ENE 9 11 5 6 1014.9 1014.8 0.0
07/07:30pm 21.0 18.2 5.0 35 7.9 ENE 9 9 5 5 1014.8 1014.7 0.0
07/07:00pm 22.4 19.9 4.9 32 8.7 E 7 9 4 5 1014.7 1014.6 0.0
07/06:30pm 23.6 20.2 4.0 28 9.6 E 11 15 6 8 1014.5 1014.4 0.0
07/06:00pm 25.7 21.5 3.6 24 10.9 E 15 20 8 11 1014.2 1014.1 0.0
07/05:30pm 26.5 21.7 2.4 21 11.7 ESE 17 24 9 13 1014.1 1014.0 0.0
07/05:00pm 26.9 21.5 2.7 21 11.9 ESE 20 26 11 14 1014.1 1014.0 0.0
07/04:30pm 27.2 22.3 4.3 23 11.6 ESE 19 26 10 14 1014.3 1014.2 0.0
07/04:00pm 26.7 21.4 3.2 22 11.6 SE 20 28 11 15 1014.4 1014.3 0.0
07/03:30pm 26.4 22.6 5.9 27 10.6 SE 15 22 8 12 1014.7 1014.6 0.0
07/03:00pm 26.0 21.4 5.6 27 10.5 SSE 19 24 10 13 1014.8 1014.7 0.0
07/02:30pm 26.1 22.1 6.7 29 10.2 SE 17 28 9 15 1015.1 1015.0 0.0
07/02:00pm 25.8 20.7 5.9 28 10.2 SE 22 32 12 17 1015.5 1015.4 0.0
07/01:30pm 26.5 21.1 6.5 28 10.5 ESE 24 33 13 18 1015.9 1015.8 0.0
07/01:00pm 25.4 20.1 6.6 30 9.8 ESE 24 35 13 19 1016.1 1016.0 0.0
07/12:30pm 25.0 19.9 7.6 33 9.2 SE 24 35 13 19 1016.6 1016.5 0.0
07/12:00pm 25.2 20.2 8.2 34 9.1 SE 24 33 13 18 1017.0 1016.9 0.0
07/11:30am 25.4 20.4 8.0 33 9.3 ESE 24 33 13 18 1017.3 1017.2 0.0
07/11:00am 24.7 19.3 7.8 34 8.9 SE 26 37 14 20 1017.4 1017.3 0.0
07/10:30am 24.4 19.5 8.4 36 8.5 SE 24 35 13 19 1017.8 1017.7 0.0
07/10:00am 23.8 19.5 7.8 36 8.4 SE 20 30 11 16 1017.8 1017.7 0.0
07/09:30am 23.3 17.8 7.4 36 8.3 SE 26 35 14 19 1017.8 1017.7 0.0
07/09:00am 23.2 19.9 9.6 42 7.4 SE 17 26 9 14 1017.5 1017.4 0.0
07/08:30am 22.5 18.7 9.0 42 7.2 SE 19 28 10 15 1017.1 1017.0 0.0
07/08:00am 21.5 19.7 12.1 55 5.3 SE 13 19 7 10 1016.7 1016.6 0.0
07/07:30am 20.6 18.8 12.1 58 4.8 SE 13 20 7 11 1016.4 1016.3 0.0
07/07:00am 19.6 17.9 12.6 64 3.9 SE 13 17 7 9 1016.0 1015.9 0.0
07/06:30am 19.9 18.5 12.2 61 4.3 SSE 11 15 6 8 1015.4 1015.3 0.0
07/06:00am 19.9 18.3 12.7 63 4.1 SSE 13 17 7 9 1015.3 1015.2 0.0
07/05:30am 19.3 18.1 12.8 66 3.7 SE 11 15 6 8 1015.0 1014.9 0.0
07/05:00am 19.3 18.2 13.0 67 3.6 SSE 11 13 6 7 1014.8 1014.7 0.0
07/04:30am 18.7 18.4 15.4 81 1.9 SE 11 17 6 9 1014.6 1014.5 0.0
07/04:00am 17.8 17.9 15.4 86 1.4 SE 9 15 5 8 1014.5 1014.4 0.0
07/03:30am 16.6 16.8 14.2 86 1.4 SSE 6 7 3 4 1014.3 1014.2 0.0
07/03:00am 17.6 19.4 15.4 87 1.3 CALM 0 0 0 0 1014.2 1014.1 0.0
07/02:30am 17.7 18.4 15.7 88 1.2 S 6 9 3 5 1014.2 1014.1 0.0
07/02:00am 15.9 15.6 12.6 81 1.8 S 6 7 3 4 1014.2 1014.1 0.0
07/01:30am 17.0 17.2 14.1 83 1.7 SSW 6 7 3 4 1014.5 1014.4 0.0
07/01:00am 15.9 15.5 12.3 79 2.0 SE 6 7 3 4 1014.7 1014.6 0.0
07/12:30am 16.6 16.6 13.7 83 1.6 SE 6 7 3 4 1014.7 1014.6 0.0
07/12:00am 16.1 15.8 12.7 80 1.9 SE 6 6 3 3 1014.9 1014.8 0.0
 
Date/Time
EST
Temp
°C
App
Temp
°C
Dew
Point
Rel
Hum
%
Delta-T
°C
Wind Press
QNH
hPa
Press
MSL
hPa
Rain
since 9 am
mm
Dir
 
Spd
km/h
Gust
km/h
Spd
kts
Gust
kts
06/11:30pm 16.5 16.1 12.5 77 2.2 SE 6 7 3 4 1014.9 1014.8 0.0
06/11:00pm 17.3 17.4 14.4 83 1.7 E 7 9 4 5 1015.1 1015.0 0.0
06/10:30pm 17.1 17.0 13.8 81 1.9 E 7 7 4 4 1015.2 1015.1 0.0
06/10:00pm 17.4 17.1 13.3 77 2.3 E 7 9 4 5 1015.2 1015.1 0.0
06/09:30pm 17.6 17.1 13.7 78 2.2 E 9 9 5 5 1015.3 1015.2 0.0
06/09:00pm 18.8 19.0 14.7 77 2.4 ESE 7 9 4 5 1015.3 1015.2 0.0
06/08:30pm 19.2 19.0 14.7 75 2.6 ESE 9 11 5 6 1015.3 1015.2 0.0
06/08:00pm 19.9 19.5 14.0 69 3.4 E 9 11 5 6 1015.2 1015.1 0.0
06/07:30pm 20.6 20.1 13.8 65 3.9 ESE 9 11 5 6 1015.2 1015.1 0.0
06/07:00pm 21.6 20.5 13.0 58 4.9 ESE 11 13 6 7 1014.9 1014.8 0.0
06/06:30pm 22.6 21.7 12.5 53 5.7 SE 9 11 5 6 1014.7 1014.6 0.0
06/06:00pm 23.6 22.3 12.6 50 6.3 SE 11 15 6 8 1014.5 1014.4 0.0
06/05:30pm 24.3 23.3 12.3 47 6.9 SSE 9 15 5 8 1014.5 1014.4 0.0
06/05:00pm 24.8 22.8 11.4 43 7.6 SSE 13 20 7 11 1014.3 1014.2 0.0
06/04:30pm 25.6 23.2 10.2 38 8.5 SSE 13 17 7 9 1014.4 1014.3 0.0
06/04:00pm 26.2 23.3 8.2 32 9.7 SE 13 17 7 9 1014.3 1014.2 0.0
06/03:30pm 25.6 22.3 8.1 33 9.4 SSE 15 22 8 12 1014.5 1014.4 0.0
06/03:00pm 25.4 23.1 11.6 42 7.8 SE 15 22 8 12 1014.7 1014.6 0.0
06/02:30pm 25.4 21.8 9.7 37 8.6 SE 19 26 10 14 1015.0 1014.9 0.0
06/02:00pm 24.5 21.9 12.1 46 7.1 SE 17 24 9 13 1015.5 1015.4 0.0
06/01:30pm 24.4 21.7 11.7 45 7.2 SSE 17 26 9 14 1016.0 1015.9 0.0
06/01:00pm 25.0 21.5 10.1 39 8.2 SSE 19 28 10 15 1016.5 1016.4 0.0
06/12:30pm 24.7 21.4 9.4 38 8.3 SE 17 30 9 16 1016.9 1016.8 0.0
06/12:00pm 24.8 20.6 8.3 35 8.8 SE 20 32 11 17 1017.2 1017.1 0.0
06/11:30am 23.8 20.0 9.8 41 7.6 SSE 20 32 11 17 1017.5 1017.4 0.0
06/11:00am 24.3 19.0 8.3 36 8.5 SE 26 37 14 20 1017.7 1017.6 0.0
06/10:30am 23.9 20.0 10.9 44 7.2 SE 22 33 12 18 1017.9 1017.8 0.0
06/10:00am 23.2 19.2 10.3 44 7.1 SE 22 33 12 18 1017.9 1017.8 0.0
06/09:30am 23.0 19.5 10.8 46 6.8 SE 20 32 11 17 1017.7 1017.6 0.0
06/09:00am 22.6 20.4 12.0 51 6.0 SSE 15 24 8 13 1017.4 1017.3 0.0
06/08:30am 22.1 20.0 13.7 59 4.9 SE 17 24 9 13 1017.1 1017.0 0.0
06/08:00am 20.6 19.4 14.0 66 3.8 SSE 13 20 7 11 1016.5 1016.4 0.0
06/07:30am 19.5 18.4 14.3 72 3.0 SSE 13 19 7 10 1016.4 1016.3 0.0
06/07:00am 18.8 18.4 15.3 80 2.1 SSE 11 19 6 10 1016.2 1016.1 0.0
06/06:30am 19.4 19.4 15.3 77 2.4 SSE 9 13 5 7 1015.9 1015.8 0.0
06/06:00am 19.0 18.8 14.7 76 2.5 SSE 9 11 5 6 1015.6 1015.5 0.0
06/05:30am 18.1 17.9 14.8 81 1.9 SE 9 11 5 6 1015.4 1015.3 0.0
06/05:00am 17.4 17.2 13.5 78 2.2 SE 7 9 4 5 1015.3 1015.2 0.0
06/04:30am 17.4 16.9 13.9 80 2.0 SE 9 11 5 6 1015.2 1015.1 0.0
06/04:00am 17.3 17.0 13.4 78 2.2 SE 7 9 4 5 1015.2 1015.1 0.0
06/03:30am 18.6 18.5 14.9 79 2.2 SE 9 11 5 6 1015.1 1015.0 0.0
06/03:00am 19.1 18.7 15.2 78 2.3 SE 11 13 6 7 1015.2 1015.1 0.0
06/02:30am 18.6 18.6 15.1 80 2.0 SE 9 13 5 7 1015.3 1015.2 0.0
06/02:00am 17.8 17.4 14.1 79 2.1 SE 9 11 5 6 1015.5 1015.4 0.0
06/01:30am 17.7 17.5 14.6 82 1.8 SSE 9 13 5 7 1015.7 1015.6 0.0
06/01:00am 17.6 17.5 15.0 85 1.5 SE 9 11 5 6 1015.8 1015.7 0.0
06/12:30am 18.0 18.4 15.3 84 1.6 ESE 7 9 4 5 1015.9 1015.8 0.0
06/12:00am 18.6 18.8 15.8 84 1.7 ESE 9 11 5 6 1016.1 1016.0 0.0
 
Date/Time
EST
Temp
°C
App
Temp
°C
Dew
Point
Rel
Hum
%
Delta-T
°C
Wind Press
QNH
hPa
Press
MSL
hPa
Rain
since 9 am
mm
Dir
 
Spd
km/h
Gust
km/h
Spd
kts
Gust
kts
05/11:30pm 18.4 18.6 15.8 85 1.5 ESE 9 11 5 6 1016.3 1016.2 0.0
05/11:00pm 18.7 19.1 16.3 86 1.4 ESE 9 11 5 6 1016.4 1016.3 0.0
05/10:30pm 18.5 18.7 15.7 84 1.7 ENE 9 11 5 6 1016.5 1016.4 0.0
05/10:00pm 19.7 20.5 17.3 86 1.5 SE 9 11 5 6 1016.5 1016.4 0.0
05/09:30pm 19.6 20.3 17.0 85 1.6 SE 9 13 5 7 1016.6 1016.5 0.0
05/09:00pm 20.0 20.6 16.8 82 1.9 ESE 9 11 5 6 1016.3 1016.2 0.0
05/08:30pm 20.4 20.5 16.6 79 2.3 E 11 11 6 6 1016.1 1016.0 0.0
05/08:00pm 21.2 21.5 17.0 77 2.6 ESE 11 13 6 7 1015.8 1015.7 0.0
05/07:30pm 21.5 21.8 16.9 75 2.8 ESE 11 15 6 8 1015.6 1015.5 0.0
05/07:00pm 22.4 22.0 17.1 72 3.3 ESE 15 19 8 10 1015.4 1015.3 0.0
05/06:30pm 23.5 22.3 15.0 59 5.1 SE 15 19 8 10 1015.2 1015.1 0.0
05/06:00pm 25.4 22.9 11.2 41 8.0 ESE 15 20 8 11 1014.9 1014.8 0.0
05/05:30pm 26.8 24.0 10.1 35 9.3 ESE 15 20 8 11 1014.7 1014.6 0.0
05/05:00pm 26.3 27.2 16.5 54 6.0 SW 7 11 4 6 1014.6 1014.5 0.0
05/04:30pm 25.5 26.0 17.4 61 5.1 W 11 17 6 9 1014.7 1014.6 0.0
05/04:00pm 25.0 24.9 17.0 61 5.0 W 13 17 7 9 1014.7 1014.6 0.0
05/03:30pm 25.4 26.2 17.3 61 5.0 WSW 9 15 5 8 1014.8 1014.7 0.0
05/03:00pm 26.0 26.1 17.4 59 5.4 W 13 19 7 10 1014.9 1014.8 0.0
05/02:30pm 25.6 24.6 16.7 58 5.5 WNW 17 19 9 10 1015.0 1014.9 0.0
05/02:00pm 26.8 26.3 13.9 45 7.7 W 9 13 5 7 1015.3 1015.2 0.0
05/01:30pm 28.9 25.6 9.6 30 10.8 E 17 24 9 13 1015.6 1015.5 0.0
05/01:00pm 28.2 24.4 9.0 30 10.6 E 19 26 10 14 1016.1 1016.0 0.0
05/12:30pm 28.2 24.4 9.9 32 10.2 ESE 20 28 11 15 1016.5 1016.4 0.0
05/12:00pm 28.0 23.5 10.2 33 10.0 ESE 24 35 13 19 1016.9 1016.8 0.0
05/11:30am 27.0 23.9 11.5 38 8.9 SE 19 28 10 15 1017.3 1017.2 0.0
05/11:00am 25.6 22.7 14.1 49 6.8 SE 22 28 12 15 1017.3 1017.2 0.0
05/10:30am 25.8 22.0 11.2 40 8.3 SE 22 33 12 18 1017.3 1017.2 0.0
05/10:00am 25.2 20.4 11.7 43 7.7 ESE 28 37 15 20 1017.3 1017.2 0.0
05/09:30am 24.3 20.1 12.3 47 6.9 SE 26 39 14 21 1017.2 1017.1 0.0
05/09:00am 22.8 21.7 15.4 63 4.4 SE 15 20 8 11 1016.8 1016.7 0.0
05/08:30am 21.9 20.6 15.7 68 3.7 SE 17 22 9 12 1016.4 1016.3 0.0

Other Formats:

Comma delimited format used in spreadsheet applications
http://www.bom.gov.au/fwo/IDQ60801/IDQ60801.94254.axf

JavaScript Object Notation format (JSON) in row-major order
http://www.bom.gov.au/fwo/IDQ60801/IDQ60801.94254.json